Hoppa till innehåll

METAR väder och rapporter - ESGG

Nedan listas information från vald flygplats. Andra METARs finns längre ned på sidan. Kontakta oss om någon saknas eller skriv in egen ICAO-kod.

Andra intressanta METARs

Klicka på önskad rubrik nedan för att visa nuvarande väder för den platsen.

Avstånd från stationen: NO 27kmESGG - Göteborg (Landvetter)
Uppdaterad: 2022-12-01 14:50
 Vind från NO
Vind: NO 9 km/h
Temperatur: 2°C
Vindavkylning: -1°C
Daggpunkt: 1°C
Luftfuktighet: 93%
Barometer: 1032 hPa
Summering: Lätt duggregn
Moln: Övervägande molnigt
Sikt: 10 km
Molninformation: Övervägande molnigt 274 m
Övervägande molnigt 366 m
2022/12/01 13:50 ESGG 011350Z 05005KT 9999 -DZ BKN009 BKN012 02/01 Q1032
Lätt duggregn, Övervägande molnigt
Lätt duggregn
Övervägande molnigt
  Visa detaljer för Göteborg (Landvetter)
Avstånd från stationen: N 28kmESGP - Göteborg (Säve)
Uppdaterad: 2022-12-01 14:50
 Vind från NO
Vind: NO 9 km/h
Temperatur: 3°C
Vindavkylning: 0°C
Daggpunkt: 1°C
Luftfuktighet: 87%
Barometer: 1033 hPa
Moln: Övervägande molnigt
Sikt: 10 km
Molninformation: Övervägande molnigt 396 m
2022/12/01 13:50 ESGP 011350Z 04005KT 9999 BKN013 03/01 Q1033
Övervägande molnigt
Övervägande molnigt
  Visa detaljer för Göteborg (Säve)
Avstånd från stationen: NO 419kmESSA - Stockholm (Arlanda)
Uppdaterad: 2022-12-01 14:50
 Vind från ONO
Vind: ONO 9 km/h
Temperatur: 1°C
Vindavkylning: -2°C
Daggpunkt: 1°C
Luftfuktighet: 100%
Barometer: 1035 hPa
Summering: Lätt regn
Moln: Övervägande molnigt
Sikt: 9 km
Molninformation: Delvis molnigt 183 m
Övervägande molnigt 701 m
2022/12/01 13:50 ESSA 011350Z 06005KT 9000 3600S -RA SCT006 BKN023 01/01 Q1035 TEMPO 4000 DZ BKN010
Lätt regn, Övervägande molnigt
Lätt regn
Övervägande molnigt
  Visa detaljer för Stockholm (Arlanda)
Avstånd från stationen: ONO 404kmESSB - Stockholm (Bromma)
Uppdaterad: 2022-12-01 14:50
 Vind från O
Vind: O 7 km/h
Temperatur: 3°C
Vindavkylning: 1°C
Daggpunkt: 2°C
Luftfuktighet: 93%
Barometer: 1035 hPa
Moln: Övervägande molnigt
Sikt: 10 km
Molninformation: Delvis molnigt 213 m
Övervägande molnigt 305 m
2022/12/01 13:50 ESSB 011350Z 08004KT 9999 SCT007 BKN010 03/02 Q1035
Övervägande molnigt
Övervägande molnigt
  Visa detaljer för Stockholm (Bromma)
Avstånd från stationen: ONO 323kmESKN - Stockholm (Skavsta)
Uppdaterad: 2022-12-01 14:50
 Vind från NNO
Vind: NNO 7 km/h
Temperatur: 2°C
Vindavkylning: 0°C
Daggpunkt: 2°C
Luftfuktighet: 100%
Barometer: 1034 hPa
Summering: Duggregn
Moln: Övervägande molnigt
Sikt: 10 km
Molninformation: Några få moln 549 m
Övervägande molnigt 853 m
2022/12/01 13:50 ESKN 011350Z 03004KT 9999 DZ FEW018 BKN028 02/02 Q1034
Duggregn, Övervägande molnigt
Duggregn
Övervägande molnigt
  Visa detaljer för Stockholm (Skavsta)
Avstånd från stationen: SSO 238kmESMS - Malmö flygplats (Sturup)
Uppdaterad: 2022-12-01 14:50
 Vind från NNO
Vind: NNO 6 km/h
Temperatur: 3°C
Daggpunkt: 3°C
Luftfuktighet: 100%
Barometer: 1030 hPa
Summering: Lätt duggregn
Moln: Genommulet
Sikt: 5 km
Molninformation: Några få moln 152 m
Övervägande molnigt 457 m
Genommulet 640 m
2022/12/01 13:50 ESMS 011350Z 03003KT 5000 -DZ FEW005 BKN015 OVC021 03/03 Q1030
Lätt duggregn, Genommulet
Lätt duggregn
Genommulet
  Visa detaljer för Malmö flygplats (Sturup)
Avstånd från stationen: O 382kmESSV - Visby flygplats
Uppdaterad: 2022-12-01 14:50
 Vind från O
Vind: O 9 km/h
Temperatur: 3°C
Vindavkylning: 0°C
Daggpunkt: 2°C
Luftfuktighet: 93%
Barometer: 1033 hPa
Summering: Klart
Sikt: mer än 10 km
2022/12/01 13:50 ESSV 011350Z 08005KT CAVOK 03/02 Q1033
Klart
Klart
  Visa detaljer för Visby flygplats
Avstånd från stationen: NNO 92kmESGT - Trollhättan
Uppdaterad: 2022-12-01 14:50
 Vind från NNO
Vind: NNO 9 km/h
Temperatur: 3°C
Vindavkylning: 0°C
Daggpunkt: 1°C
Luftfuktighet: 87%
Barometer: 1034 hPa
Summering: Lätt regn
Moln: Övervägande molnigt
Sikt: 10 km
Molninformation: Delvis molnigt 396 m
Övervägande molnigt 1372 m
2022/12/01 13:50 ESGT 011350Z 02005KT 9999 -RA SCT013 BKN045 03/01 Q1034
Lätt regn, Övervägande molnigt
Lätt regn
Övervägande molnigt
  Visa detaljer för Trollhättan
Avstånd från stationen: ONO 129kmESGJ - Jönköpings flygplats
Uppdaterad: 2022-12-01 14:50
 Vind från varierande
Vind: varierande 6 km/h
Temperatur: 2°C
Daggpunkt: 2°C
Luftfuktighet: 100%
Barometer: 1032 hPa
Summering: Dimmigt
Moln: Övervägande molnigt
Sikt: 6 km
Molninformation: Övervägande molnigt 152 m
Övervägande molnigt 244 m
2022/12/01 13:50 ESGJ 011350Z VRB03KT 6000 BR BKN005 BKN008 02/02 Q1032
Dimmigt, Övervägande molnigt
Dimmigt
Övervägande molnigt
  Visa detaljer för Jönköpings flygplats
Avstånd från stationen: NNO 229kmESOK - Karlstad
Uppdaterad: 2022-12-01 14:50
 Vind från N
Vind: N 11 km/h
Temperatur: 1°C
Vindavkylning: -2°C
Daggpunkt: 1°C
Luftfuktighet: 100%
Barometer: 1034 hPa
Moln: Övervägande molnigt
Sikt: 10 km
Molninformation: Övervägande molnigt 152 m
2022/12/01 13:50 ESOK 011350Z 01006KT 9999 BKN005 01/01 Q1034
Övervägande molnigt
Övervägande molnigt
  Visa detaljer för Karlstad
Avstånd från stationen: N 643kmESNZ - Östersund (Frösön)
Uppdaterad: 2022-12-01 14:50
 Vind från S
Vind: S 4 km/h
Temperatur: -3°C
Daggpunkt: -3°C
Luftfuktighet: 100%
Barometer: 1035 hPa
Moln: Genommulet
Sikt: 10 km
Molninformation: Genommulet 91 m
2022/12/01 13:50 ESNZ 011350Z 18002KT 9999 OVC003 M03/M03 Q1035
Genommulet
Genommulet
  Visa detaljer för Östersund (Frösön)
Avstånd från stationen: SSO 216kmEKCH - Köpenhamn (Kastrup)
Uppdaterad: 2022-12-01 14:50
 Vind från ONO
Vind: ONO 11 km/h
Temperatur: 4°C
Vindavkylning: 1°C
Daggpunkt: 3°C
Luftfuktighet: 93%
Barometer: 1031 hPa
Moln: Genommulet
Sikt: 10 km
Molninformation: Genommulet 792 m
2022/12/01 13:50 EKCH 011350Z AUTO 06006KT 9999 OVC026/// 04/03 Q1031 NOSIG
Genommulet
Genommulet
  Visa detaljer för Köpenhamn (Kastrup)
Avstånd från stationen: SV 263kmEKBI - Billund Airport
Uppdaterad: 2022-12-01 14:50
 Vind från NO
Vind: NO 13 km/h
Temperatur: 4°C
Vindavkylning: 1°C
Daggpunkt: 3°C
Luftfuktighet: 93%
Barometer: 1031 hPa
Moln: Genommulet
Sikt: 10 km
Molninformation: Genommulet 610 m
2022/12/01 13:50 EKBI 011350Z AUTO 04007KT 9999 OVC020/// 04/03 Q1031
Genommulet
Genommulet
  Visa detaljer för Billund Airport
Avstånd från stationen: N 302kmENGM - Oslo (Gardermoen)
Uppdaterad: 2022-12-01 14:50
 Vind från N
Vind: N 9 km/h
Temperatur: -1°C
Vindavkylning: -4°C
Daggpunkt: -3°C
Luftfuktighet: 86%
Barometer: 1035 hPa
Moln: Övervägande molnigt
Sikt: 10 km
Molninformation: Några få moln 244 m
Övervägande molnigt 732 m
2022/12/01 13:50 ENGM 011350Z 36005KT 9999 FEW008 BKN024 M01/M03 Q1035 TEMPO BKN008
Övervägande molnigt
Övervägande molnigt
  Visa detaljer för Oslo (Gardermoen)
Avstånd från stationen: NO 540kmEFMA - Mariehamn / Åland
Uppdaterad: 2022-12-01 14:50
 Vind från OSO
Vind: OSO 9 km/h
Temperatur: 3°C
Vindavkylning: 0°C
Daggpunkt: 1°C
Luftfuktighet: 87%
Barometer: 1037 hPa
Moln: Genommulet
Sikt: 10 km
Molninformation: Genommulet 549 m
2022/12/01 13:50 EFMA 011350Z AUTO 11005KT 9999 OVC018 03/01 Q1037
Genommulet
Genommulet
  Visa detaljer för Mariehamn / Åland
Avstånd från stationen: S 558kmEDDT - Berlin (Tegel), Germany
Uppdaterad: 2020-11-09 07:50
Ej aktuell
 Vind från O
Vind: O 11 km/h
Temperatur: 6°C
Vindavkylning: 4°C
Daggpunkt: 5°C
Luftfuktighet: 93%
Barometer: 1027 hPa
Summering: Dimmigt
Moln: Genommulet
Sikt: 3 km
Molninformation: Genommulet 91 m
2020/11/09 06:50 EDDT 090650Z 09006KT 050V120 3000 BR OVC003 06/05 Q1027
Dimmigt, Genommulet
Dimmigt
Genommulet
  Visa detaljer för Berlin (Tegel), Germany
Avstånd från stationen: SV 737kmEHAM - Amsterdam (Schiphol)
Uppdaterad: 2022-12-01 14:55
 Vind från NO
Vind: NO 15 km/h
Temperatur: 7°C
Vindavkylning: 4°C
Daggpunkt: 3°C
Luftfuktighet: 76%
Barometer: 1028 hPa
Moln: Några få moln
Sikt: 10 km
Molninformation: Några få moln 671 m
2022/12/01 13:55 EHAM 011355Z 04008KT 9999 FEW022 07/03 Q1028 NOSIG
Några få moln
Några få moln
  Visa detaljer för Amsterdam (Schiphol)
Avstånd från stationen: ONO 808kmEFHK - Helsingfors (Vantaa)
Uppdaterad: 2022-12-01 14:50
 Vind från ONO
Vind: ONO 15 km/h
Temperatur: -1°C
Vindavkylning: -6°C
Daggpunkt: -2°C
Luftfuktighet: 93%
Barometer: 1038 hPa
Moln: Övervägande molnigt
Sikt: 10 km
Molninformation: Några få moln 274 m
Övervägande molnigt 366 m
2022/12/01 13:50 EFHK 011350Z 06008KT 9999 FEW009 BKN012 M01/M02 Q1038 NOSIG
Övervägande molnigt
Övervägande molnigt
  Visa detaljer för Helsingfors (Vantaa)
Avstånd från stationen: SSV 537kmEDDW - Bremen
Uppdaterad: 2022-12-01 14:50
 Vind från ONO
Vind: ONO 13 km/h
Temperatur: 4°C
Vindavkylning: 1°C
Daggpunkt: 1°C
Luftfuktighet: 81%
Barometer: 1028 hPa
Moln: Genommulet
Sikt: 10 km
Molninformation: Genommulet 427 m
2022/12/01 13:50 EDDW 011350Z AUTO 07007KT 9999 OVC014 04/01 Q1028 TEMPO OVC008
Genommulet
Genommulet
  Visa detaljer för Bremen
Avstånd från stationen: SSV 861kmEDDF - Frankfurt am Main
Uppdaterad: 2022-12-01 14:50
 Vind från NNO
Vind: NNO 19 km/h
Temperatur: 5°C
Vindavkylning: 1°C
Daggpunkt: 1°C
Luftfuktighet: 76%
Barometer: 1024 hPa
Moln: Delvis molnigt
Sikt: 10 km
Molninformation: Några få moln 518 m
Delvis molnigt 945 m
2022/12/01 13:50 EDDF 011350Z AUTO 02010KT 9999 FEW017 SCT031 05/01 Q1024 NOSIG
Delvis molnigt
Delvis molnigt
  Visa detaljer för Frankfurt am Main
Avstånd från stationen: SV 880kmEBBR - Bryssel international
Uppdaterad: 2022-12-01 14:50
 Vind från N
Vind: N 11 km/h
Temperatur: 6°C
Vindavkylning: 4°C
Daggpunkt: 3°C
Luftfuktighet: 81%
Barometer: 1026 hPa
Moln: Övervägande molnigt
Sikt: 10 km
Molninformation: Några få moln 457 m
Övervägande molnigt 640 m
2022/12/01 13:50 EBBR 011350Z 01006KT 9999 FEW015 BKN021 06/03 Q1026 NOSIG
Övervägande molnigt
Övervägande molnigt
  Visa detaljer för Bryssel international
Avstånd från stationen: SV 738kmEHAM - Amsterdam (Schiphol)
Uppdaterad: 2022-12-01 14:55
 Vind från NO
Vind: NO 15 km/h
Temperatur: 7°C
Vindavkylning: 4°C
Daggpunkt: 3°C
Luftfuktighet: 76%
Barometer: 1028 hPa
Moln: Några få moln
Sikt: 10 km
Molninformation: Några få moln 671 m
2022/12/01 13:55 EHAM 011355Z 04008KT 9999 FEW022 07/03 Q1028 NOSIG
Några få moln
Några få moln
  Visa detaljer för Amsterdam (Schiphol)
Avstånd från stationen: SV 1044kmEGLL - London (Heathrow)
Uppdaterad: 2022-12-01 14:50
 Vind från VNV
Vind: VNV 7 km/h
Temperatur: 7°C
Vindavkylning: 6°C
Daggpunkt: 5°C
Luftfuktighet: 87%
Barometer: 1028 hPa
Summering: Partial Fog
Moln: Delvis molnigt
Sikt: 8 km
Molninformation: Delvis molnigt 30 m
2022/12/01 13:50 EGLL 011350Z 29004KT 8000 0900SW R27L/P1500N R27R/P1500N PRFG SCT001 07/05 Q1028
Partial fog, Delvis molnigt
Partial fog
Delvis molnigt
  Visa detaljer för London (Heathrow)
Avstånd från stationen: SV 1132kmLFPG - Paris (Charles de Gaulle)
Uppdaterad: 2022-12-01 15:00
 Vind från NNO
Vind: NNO 15 km/h
Temperatur: 5°C
Vindavkylning: 2°C
Daggpunkt: 3°C
Luftfuktighet: 87%
Barometer: 1025 hPa
Moln: Genommulet
Sikt: 10 km
Molninformation: Genommulet 305 m
2022/12/01 14:00 LFPG 011400Z 02008KT 360V090 9999 OVC010 05/03 Q1025 TEMPO BKN012
Genommulet
Genommulet
  Visa detaljer för Paris (Charles de Gaulle)
Avstånd från stationen: SSV 1142kmLSZH - Zürich Airport
Uppdaterad: 2022-12-01 14:50
 Vind från NNO
Vind: NNO 6 km/h
Temperatur: 4°C
Daggpunkt: 0°C
Luftfuktighet: 75%
Barometer: 1020 hPa
Moln: Övervägande molnigt
Sikt: 10 km
Molninformation: Några få moln 457 m
Övervägande molnigt 549 m
2022/12/01 13:50 LSZH 011350Z 03003KT 9999 FEW015 BKN018 04/M00 Q1020 NOSIG
Övervägande molnigt
Övervägande molnigt
  Visa detaljer för Zürich Airport
Avstånd från stationen: S 1749kmLIRF - Rome Airport (Fiumicino - Leonardo da Vinci)
Uppdaterad: 2022-12-01 14:50
 Vind från varierande
Vind: varierande 4 km/h
Temperatur: 14°C
Daggpunkt: 6°C
Luftfuktighet: 59%
Barometer: 1013 hPa
Summering: Klart
Sikt: mer än 10 km
2022/12/01 13:50 LIRF 011350Z VRB02KT CAVOK 14/06 Q1013 NOSIG
Klart
Klart
  Visa detaljer för Rome Airport (Fiumicino - Leonardo da Vinci)
Avstånd från stationen: SO 2679kmLTAI - Antalya
Uppdaterad: 2022-12-01 14:50
 Vind från NO
Vind: NO 13 km/h
Temperatur: 17°C
Daggpunkt: 16°C
Luftfuktighet: 94%
Barometer: 1018 hPa
Moln: Övervägande molnigt
Sikt: 10 km
Molninformation: Några få moln 610 m
Övervägande molnigt 914 m
2022/12/01 13:50 LTAI 011350Z 05007KT 9999 FEW020CB BKN030 17/16 Q1018 NOSIG
Övervägande molnigt
Övervägande molnigt
  Visa detaljer för Antalya
Avstånd från stationen: VSV 6074kmKJFK - New Your (JFK)
Uppdaterad: 2022-12-01 14:51
 Vind från V
Vind: V 35 km/h
Temperatur: 4°C
Vindavkylning: -2°C
Daggpunkt: -7°C
Luftfuktighet: 45%
Barometer: 1023 hPa
Moln: Delvis molnigt
Sikt: 16 km
Molninformation: Några få moln 1128 m
Delvis molnigt 1829 m
2022/12/01 13:51 KJFK 011351Z 27019KT 10SM FEW037 SCT060 04/M07 A3021 RMK AO2 SLP229 T00391072
Delvis molnigt
Delvis molnigt
  Visa detaljer för New Your (JFK)
Avstånd från stationen: VSV 8848kmKLAX - Los Angeles International Airport
Uppdaterad: 2022-12-01 14:53
 Vind från SO
Vind: SO 7 km/h
Temperatur: 13°C
Daggpunkt: 7°C
Luftfuktighet: 67%
Barometer: 1016.6 hPa
Moln: Genommulet
Sikt: 16 km
Molninformation: Några få moln 366 m
Några få moln 762 m
Genommulet 1219 m
2022/12/01 13:53 KLAX 011353Z 13004KT 10SM FEW012 FEW025 OVC040 13/07 A3002 RMK AO2 SLP163 T01330067 $
Genommulet
Genommulet
  Visa detaljer för Los Angeles International Airport
Avstånd från stationen: SO 4968kmOMDB - Dubai International Airport
Uppdaterad: 2022-12-01 15:00
 Vind från V
Vind: V 13 km/h
Temperatur: 28°C
Värmeindex: 29°C
Daggpunkt: 18°C
Luftfuktighet: 55%
Barometer: 1014 hPa
Summering: Klart
Sikt: mer än 10 km
2022/12/01 14:00 OMDB 011400Z 28007KT 260V320 CAVOK 28/18 Q1014 NOSIG
Klart
Klart
  Visa detaljer för Dubai International Airport
Avstånd från stationen: OSO 8570kmRJTT - Tokyo International Airport
Uppdaterad: 2022-12-01 15:00
 Vind från NNO
Vind: NNO 17 km/h
Temperatur: 10°C
Vindavkylning: 8°C
Daggpunkt: 8°C
Luftfuktighet: 88%
Barometer: 1017 hPa
Moln: Övervägande molnigt
Sikt: 10 km
Molninformation: Några få moln 457 m
Övervägande molnigt 914 m
Övervägande molnigt 1372 m
2022/12/01 14:00 RJTT 011400Z 02009KT 9999 FEW015 BKN030 BKN045 10/08 Q1017 NOSIG
Övervägande molnigt
Övervägande molnigt
  Visa detaljer för Tokyo International Airport
Avstånd från stationen: OSO 7125kmZBAA - Peking (Beijing Capital)
Uppdaterad: 2022-12-01 15:00
 Vind från SV
Vind: SV 11 km/h
Temperatur: -3°C
Vindavkylning: -7°C
Daggpunkt: -18°C
Luftfuktighet: 31%
Barometer: 1032 hPa
Summering: Klart
Sikt: mer än 10 km
2022/12/01 14:00 ZBAA 011400Z 22003MPS CAVOK M03/M18 Q1032 NOSIG
Klart
Klart
  Visa detaljer för Peking (Beijing Capital)
VÄDER KURIOSA -  One Inch of RainOne inch of rain over one square mile equals to 17.4 million gallons of water.